createdAt,value
2019-05-25T18:05:00.977Z,28.30
2019-05-25T18:07:36.349Z,27.80
2019-05-25T18:10:08.838Z,27.60
2019-05-25T18:12:37.978Z,27.40
2019-05-25T18:15:09.512Z,27.30
2019-05-25T18:17:51.122Z,27.20
2019-05-25T18:20:20.688Z,27.10
2019-05-25T18:22:48.418Z,27.00
2019-05-25T18:25:17.350Z,26.90
2019-05-25T18:27:45.958Z,26.90
2019-05-25T18:30:27.475Z,26.80
2019-05-25T18:32:57.158Z,26.80
2019-05-25T18:35:26.388Z,26.80
2019-05-25T18:37:55.131Z,26.80
2019-05-25T18:40:24.578Z,26.80
2019-05-25T18:42:54.037Z,26.80
2019-05-25T18:45:22.922Z,26.80
2019-05-25T18:47:51.849Z,26.80
2019-05-25T18:50:21.508Z,26.80
2019-05-25T18:52:50.907Z,26.80
2019-05-25T18:55:21.547Z,26.90
2019-05-25T18:57:51.122Z,26.90
2019-05-25T19:00:19.631Z,26.90
2019-05-25T19:02:48.926Z,26.90
2019-05-25T19:05:16.926Z,26.90
2019-05-25T19:07:45.990Z,26.90
2019-05-25T19:10:13.954Z,26.90
2019-05-25T19:12:43.052Z,26.90
2019-05-25T19:15:11.728Z,26.90
2019-05-25T19:17:41.125Z,26.90
2019-05-25T19:20:10.060Z,26.90
2019-05-25T19:22:45.557Z,26.90
2019-05-25T19:25:14.556Z,26.90
2019-05-25T19:27:44.080Z,26.80
2019-05-25T19:30:13.068Z,26.80
2019-05-25T19:32:42.373Z,26.80
2019-05-25T19:35:12.294Z,26.80
2019-05-25T19:37:42.688Z,26.80
2019-05-25T19:40:13.040Z,26.80
2019-05-25T19:42:54.007Z,26.80
2019-05-25T19:45:38.982Z,26.80
2019-05-25T19:48:08.114Z,26.80
2019-05-25T19:50:36.928Z,26.80
2019-05-25T19:53:06.035Z,26.80
2019-05-25T19:55:34.598Z,26.70
2019-05-25T19:58:03.805Z,26.80
2019-05-25T20:00:32.609Z,26.70
2019-05-25T20:03:01.442Z,26.70
2019-05-25T20:05:30.220Z,26.70
2019-05-25T20:08:19.480Z,26.70
2019-05-25T20:10:56.011Z,26.70
2019-05-25T20:13:24.553Z,26.70
2019-05-25T20:16:09.015Z,26.70
2019-05-25T20:18:38.180Z,26.70
2019-05-25T20:21:12.130Z,26.70
2019-05-25T20:23:41.234Z,26.60
2019-05-25T20:26:09.993Z,26.70
2019-05-25T20:31:13.638Z,26.70
2019-05-25T20:33:42.471Z,26.70
2019-05-25T20:36:16.859Z,26.70
2019-05-25T20:38:46.014Z,26.70
2019-05-25T20:41:28.753Z,26.60
2019-05-25T20:43:45.956Z,26.60
2019-05-25T20:46:15.113Z,26.60
2019-05-25T20:48:43.399Z,26.60
2019-05-25T20:51:12.563Z,26.60
2019-05-25T20:53:42.006Z,26.70
2019-05-25T20:56:11.603Z,26.80
2019-05-25T20:58:39.676Z,26.80
2019-05-25T21:01:08.668Z,26.90
2019-05-25T21:03:37.657Z,27.00
2019-05-25T21:06:06.651Z,27.00
2019-05-25T21:08:35.641Z,27.10
2019-05-25T21:11:04.514Z,27.10
2019-05-25T21:13:33.632Z,27.20
2019-05-25T21:16:02.009Z,27.20
2019-05-25T21:18:31.306Z,27.20
2019-05-25T21:21:02.274Z,27.30
2019-05-25T21:23:32.091Z,27.30
2019-05-25T21:26:01.521Z,27.20
2019-05-25T21:28:30.665Z,27.30
2019-05-25T21:30:58.552Z,27.30
2019-05-25T21:33:29.756Z,27.30
2019-05-25T21:36:08.157Z,27.30
2019-05-25T21:38:30.037Z,27.30
2019-05-25T21:40:59.179Z,27.30
2019-05-25T21:43:28.754Z,27.30
2019-05-25T21:45:57.902Z,27.30
2019-05-25T21:48:26.929Z,27.40
2019-05-25T22:04:22.366Z,28.80
2019-05-25T22:06:52.659Z,28.10
2019-05-25T22:09:22.863Z,27.50
2019-05-25T22:11:54.580Z,27.20
2019-05-25T22:14:29.072Z,27.00
2019-05-25T22:16:59.137Z,26.80
2019-05-25T22:19:29.143Z,26.60
2019-05-25T22:21:59.193Z,26.50
2019-05-25T22:24:29.306Z,26.40
2019-05-25T22:26:59.292Z,26.40
2019-05-25T22:29:29.364Z,26.30
2019-05-25T22:32:03.690Z,26.30
2019-05-25T22:34:37.202Z,26.30
2019-05-25T22:37:02.909Z,26.20
2019-05-25T22:39:32.926Z,26.20
2019-05-25T22:42:02.912Z,26.20
2019-05-25T22:44:33.466Z,26.10
2019-05-25T22:47:03.846Z,26.20
2019-05-25T22:49:33.995Z,26.20
2019-05-25T22:52:04.008Z,26.10
2019-05-25T22:54:34.023Z,26.00
2019-05-25T22:57:05.150Z,25.90
2019-05-25T22:59:38.406Z,25.90
2019-05-25T23:02:08.583Z,25.70
2019-05-25T23:04:39.472Z,25.60
2019-05-25T23:07:09.427Z,25.50
2019-05-25T23:09:41.700Z,25.40
2019-05-25T23:12:23.345Z,25.40
2019-05-25T23:14:57.558Z,25.30
2019-05-25T23:17:27.527Z,25.20
2019-05-25T23:19:57.521Z,25.10
2019-05-25T23:22:27.541Z,25.10
2019-05-25T23:24:57.715Z,25.00
2019-05-25T23:27:27.770Z,25.00
2019-05-25T23:29:57.748Z,25.00
2019-05-25T23:32:27.838Z,24.90
2019-05-25T23:34:57.805Z,24.90
2019-05-25T23:40:25.445Z,24.80
2019-05-25T23:42:55.833Z,24.70
2019-05-25T23:45:25.803Z,24.70
2019-05-25T23:47:55.867Z,24.70
2019-05-25T23:50:25.909Z,24.60
2019-05-25T23:52:55.879Z,24.60
2019-05-25T23:55:26.184Z,24.60
2019-05-25T23:57:56.345Z,24.50
